Time;durP1;ratioP1;P1;durP2;ratioP2;P2;SDS_P1;SDS_P2;PMS_P1;PMS_P2;Temp;Humidity;BMP_temperature;BMP_pressure;BME280_temperature;BME280_humidity;BME280_pressure;Samples;Min_cycle;Max_cycle;Signal;HPM_P1;HPM_P2
2021/04/26 00:00:07;;;;;;;3.93;2.50;;;;;;;;;;5090017;28;20672;-65
2021/04/26 00:02:33;;;;;;;3.60;1.90;;;;;;;;;;5090468;28;20255;-65
2021/04/26 00:04:59;;;;;;;2.93;2.37;;;;;;;;;;5070850;28;20184;-66
2021/04/26 00:07:25;;;;;;;3.63;2.50;;;;;;;;;;5090331;28;20660;-65
2021/04/26 00:09:51;;;;;;;4.47;2.03;;;;;;;;;;5089251;28;20200;-65
2021/04/26 00:12:17;;;;;;;3.90;2.70;;;;;;;;;;5079024;28;20189;-66
2021/04/26 00:14:43;;;;;;;3.90;2.73;;;;;;;;;;5070157;28;20271;-65
2021/04/26 00:17:09;;;;;;;3.90;2.60;;;;;;;;;;5085546;28;20183;-66
2021/04/26 00:19:35;;;;;;;2.67;2.20;;;;;;;;;;5089809;28;20175;-66
2021/04/26 00:22:01;;;;;;;4.77;2.40;;;;;;;;;;5083791;28;20634;-65
2021/04/26 00:24:27;;;;;;;3.60;2.60;;;;;;;;;;5055487;28;20176;-66
2021/04/26 00:26:53;;;;;;;3.30;2.10;;;;;;;;;;5070934;28;20260;-65
2021/04/26 00:29:19;;;;;;;3.93;2.57;;;;;;;;;;5071901;28;20171;-69
2021/04/26 00:31:46;;;;;;;5.57;2.43;;;;;;;;;;5089774;28;20192;-66
2021/04/26 00:34:12;;;;;;;4.20;2.60;;;;;;;;;;5070934;28;20224;-65
2021/04/26 00:36:38;;;;;;;5.93;2.60;;;;;;;;;;5074762;28;20176;-66
2021/04/26 00:39:04;;;;;;;3.53;2.40;;;;;;;;;;5075400;28;20252;-66
2021/04/26 00:41:30;;;;;;;3.00;2.60;;;;;;;;;;5093458;28;20172;-66
2021/04/26 00:43:56;;;;;;;2.87;2.40;;;;;;;;;;5092864;28;20263;-65
2021/04/26 00:46:22;;;;;;;4.73;2.30;;;;;;;;;;5093554;28;20597;-66
2021/04/26 00:48:48;;;;;;;4.53;2.75;;;;;;;;;;5080187;28;20919;-65
2021/04/26 00:51:14;;;;;;;3.67;2.30;;;;;;;;;;5092088;28;20239;-68
2021/04/26 00:53:41;;;;;;;2.87;2.10;;;;;;;;;;5073124;28;20647;-66
2021/04/26 00:56:07;;;;;;;2.93;2.60;;;;;;;;;;5089270;28;20892;-65
2021/04/26 00:58:33;;;;;;;3.07;2.17;;;;;;;;;;5094187;28;20187;-65
2021/04/26 01:00:59;;;;;;;4.83;3.03;;;;;;;;;;5093449;28;20600;-65
2021/04/26 01:03:25;;;;;;;3.93;2.17;;;;;;;;;;5075704;28;20205;-67
2021/04/26 01:05:51;;;;;;;4.80;2.90;;;;;;;;;;5092346;28;20171;-65
2021/04/26 01:08:17;;;;;;;3.20;2.40;;;;;;;;;;5093353;28;20179;-65
2021/04/26 01:10:43;;;;;;;4.77;2.50;;;;;;;;;;5085128;28;20203;-65
2021/04/26 01:13:32;;;;;;;3.60;2.43;;;;;;;;;;5072884;28;20195;-67
2021/04/26 01:16:08;;;;;;;2.90;2.50;;;;;;;;;;5080496;28;20649;-65
2021/04/26 01:18:37;;;;;;;5.30;2.50;;;;;;;;;;5092451;28;20175;-65
2021/04/26 01:21:21;;;;;;;4.00;2.97;;;;;;;;;;5091184;28;20198;-66
2021/04/26 01:24:01;;;;;;;3.50;2.40;;;;;;;;;;5090216;28;20630;-65
2021/04/26 01:26:30;;;;;;;5.80;2.73;;;;;;;;;;5068102;28;20215;-66
2021/04/26 01:29:14;;;;;;;4.90;2.60;;;;;;;;;;5092075;28;20638;-65
2021/04/26 01:31:43;;;;;;;2.90;2.43;;;;;;;;;;5084830;28;20203;-65
2021/04/26 01:34:09;;;;;;;4.50;2.70;;;;;;;;;;5091060;28;20188;-66
2021/04/26 01:36:35;;;;;;;3.17;2.80;;;;;;;;;;5091819;28;20211;-67
2021/04/26 01:39:02;;;;;;;5.20;3.00;;;;;;;;;;5093192;28;20621;-66
2021/04/26 01:41:29;;;;;;;6.33;2.80;;;;;;;;;;5076696;28;20215;-66
2021/04/26 01:43:56;;;;;;;4.13;2.40;;;;;;;;;;5084657;28;20255;-66
2021/04/26 01:46:23;;;;;;;4.00;2.83;;;;;;;;;;5074665;28;20680;-66
2021/04/26 01:48:50;;;;;;;3.17;2.37;;;;;;;;;;5088274;28;20188;-65
2021/04/26 01:51:17;;;;;;;3.73;2.50;;;;;;;;;;5091071;28;20242;-65
2021/04/26 01:53:44;;;;;;;5.47;2.47;;;;;;;;;;5090094;28;20180;-65
2021/04/26 01:56:12;;;;;;;4.70;3.00;;;;;;;;;;5082200;28;20180;-65
2021/04/26 01:58:40;;;;;;;4.23;2.93;;;;;;;;;;5081878;28;20630;-66
2021/04/26 02:01:06;;;;;;;4.00;2.47;;;;;;;;;;5091662;28;20251;-66
2021/04/26 02:03:33;;;;;;;4.70;2.93;;;;;;;;;;5072068;28;20554;-65
2021/04/26 02:06:00;;;;;;;3.30;2.70;;;;;;;;;;5073500;28;20184;-65
2021/04/26 02:08:27;;;;;;;4.50;2.80;;;;;;;;;;5091400;28;20599;-66
2021/04/26 02:10:53;;;;;;;3.93;2.83;;;;;;;;;;5090445;28;20207;-65
2021/04/26 02:13:21;;;;;;;2.87;2.57;;;;;;;;;;5070239;28;20198;-66
2021/04/26 02:15:48;;;;;;;4.43;2.73;;;;;;;;;;5056889;28;20263;-66
2021/04/26 02:18:14;;;;;;;4.53;3.10;;;;;;;;;;5090376;28;20935;-64
2021/04/26 02:20:40;;;;;;;4.00;2.70;;;;;;;;;;5091385;28;20194;-65
2021/04/26 02:23:06;;;;;;;2.80;2.37;;;;;;;;;;5091836;28;20259;-65
2021/04/26 02:25:33;;;;;;;3.07;2.70;;;;;;;;;;5090547;28;20241;-65
2021/04/26 02:27:59;;;;;;;4.20;2.63;;;;;;;;;;5092165;28;20176;-64
2021/04/26 02:30:27;;;;;;;4.77;3.20;;;;;;;;;;5091403;28;20245;-65
2021/04/26 02:33:02;;;;;;;4.90;2.77;;;;;;;;;;5091528;28;20235;-66
2021/04/26 02:35:42;;;;;;;4.70;3.20;;;;;;;;;;5074272;28;20204;-65
2021/04/26 02:38:09;;;;;;;5.00;2.97;;;;;;;;;;5073961;28;20542;-65
2021/04/26 02:40:41;;;;;;;6.07;3.07;;;;;;;;;;5090406;28;20179;-67
2021/04/26 02:43:08;;;;;;;5.63;2.93;;;;;;;;;;5072756;28;20223;-66
2021/04/26 02:45:36;;;;;;;3.57;3.00;;;;;;;;;;5089589;28;20197;-64
2021/04/26 02:48:02;;;;;;;3.70;2.90;;;;;;;;;;5080168;28;20176;-65
2021/04/26 02:50:29;;;;;;;4.50;3.10;;;;;;;;;;5090452;28;20215;-65
2021/04/26 02:52:55;;;;;;;3.40;3.00;;;;;;;;;;5073003;28;20176;-66
2021/04/26 02:55:22;;;;;;;5.17;3.20;;;;;;;;;;5090054;28;20187;-66
2021/04/26 02:57:53;;;;;;;3.80;2.83;;;;;;;;;;5091373;28;20164;-65
2021/04/26 03:00:20;;;;;;;4.43;3.07;;;;;;;;;;5089970;28;20176;-65
2021/04/26 03:02:47;;;;;;;6.20;2.63;;;;;;;;;;5090792;28;20195;-65
2021/04/26 03:05:14;;;;;;;3.77;2.70;;;;;;;;;;5089737;28;20195;-65
2021/04/26 03:07:41;;;;;;;4.03;2.80;;;;;;;;;;5090135;28;20188;-65
2021/04/26 03:10:09;;;;;;;4.17;3.10;;;;;;;;;;5089969;28;20188;-65
2021/04/26 03:12:38;;;;;;;3.13;2.83;;;;;;;;;;5090823;28;20688;-64
2021/04/26 03:15:04;;;;;;;4.37;3.00;;;;;;;;;;5090449;28;20183;-65
2021/04/26 03:17:30;;;;;;;4.20;3.03;;;;;;;;;;5090440;28;20690;-65
2021/04/26 03:19:56;;;;;;;4.13;3.23;;;;;;;;;;5090271;28;20184;-66
2021/04/26 03:22:23;;;;;;;4.57;2.90;;;;;;;;;;5072038;28;20183;-65
2021/04/26 03:24:50;;;;;;;4.00;2.83;;;;;;;;;;5071835;28;20613;-65
2021/04/26 03:27:17;;;;;;;6.20;3.17;;;;;;;;;;5091060;28;20176;-68
2021/04/26 03:29:45;;;;;;;5.27;3.10;;;;;;;;;;5072539;28;20211;-65
2021/04/26 03:32:13;;;;;;;5.13;2.67;;;;;;;;;;5089995;28;20693;-67
2021/04/26 03:34:40;;;;;;;4.60;2.67;;;;;;;;;;5067320;28;20279;-65
2021/04/26 03:37:06;;;;;;;4.77;3.10;;;;;;;;;;5067333;28;20205;-66
2021/04/26 03:39:34;;;;;;;2.97;2.60;;;;;;;;;;5072363;28;20176;-65
2021/04/26 03:42:00;;;;;;;4.07;2.90;;;;;;;;;;5082849;28;20192;-68
2021/04/26 03:44:26;;;;;;;3.30;2.60;;;;;;;;;;5071596;28;20668;-66
2021/04/26 03:46:56;;;;;;;4.70;3.20;;;;;;;;;;5089112;28;20626;-65
2021/04/26 03:49:23;;;;;;;3.43;3.03;;;;;;;;;;5089139;28;20191;-65
2021/04/26 03:51:49;;;;;;;4.60;3.07;;;;;;;;;;5070482;28;20570;-65
2021/04/26 03:54:15;;;;;;;4.33;2.77;;;;;;;;;;5070340;28;20649;-64
2021/04/26 03:56:41;;;;;;;3.37;2.43;;;;;;;;;;5071207;28;20184;-66
2021/04/26 03:59:08;;;;;;;4.47;3.93;;;;;;;;;;5089623;28;20179;-65
2021/04/26 04:01:34;;;;;;;4.60;2.80;;;;;;;;;;5071201;28;20183;-65
2021/04/26 04:04:01;;;;;;;5.53;3.33;;;;;;;;;;5078560;28;20187;-65
2021/04/26 04:06:27;;;;;;;4.83;3.00;;;;;;;;;;5088817;28;20258;-65
2021/04/26 04:08:53;;;;;;;4.77;2.97;;;;;;;;;;5088828;28;20329;-65
2021/04/26 04:11:19;;;;;;;4.37;2.80;;;;;;;;;;5075605;28;20196;-65
2021/04/26 04:13:45;;;;;;;4.27;2.87;;;;;;;;;;5075508;28;20206;-65
2021/04/26 04:16:11;;;;;;;4.37;3.27;;;;;;;;;;5071928;28;20168;-65
2021/04/26 04:18:37;;;;;;;3.57;2.83;;;;;;;;;;5087292;28;20183;-65
2021/04/26 04:21:03;;;;;;;5.53;2.97;;;;;;;;;;5075451;28;20241;-67
2021/04/26 04:23:29;;;;;;;5.10;3.47;;;;;;;;;;5093246;28;20184;-65
2021/04/26 04:25:55;;;;;;;5.57;3.37;;;;;;;;;;5093784;28;20252;-66
2021/04/26 04:28:21;;;;;;;5.90;3.10;;;;;;;;;;5076222;28;20180;-65
2021/04/26 04:30:47;;;;;;;6.97;3.37;;;;;;;;;;5073681;28;20555;-65
2021/04/26 04:33:13;;;;;;;6.50;3.27;;;;;;;;;;5090823;28;20714;-66
2021/04/26 04:35:40;;;;;;;6.43;3.37;;;;;;;;;;5087791;28;20252;-65
2021/04/26 04:38:06;;;;;;;4.17;2.97;;;;;;;;;;5090621;28;20237;-65
2021/04/26 04:40:32;;;;;;;5.43;3.30;;;;;;;;;;5092280;28;20196;-67
2021/04/26 04:42:58;;;;;;;7.67;3.50;;;;;;;;;;5091536;28;20183;-66
2021/04/26 04:45:24;;;;;;;3.90;3.50;;;;;;;;;;5089406;28;20183;-67
2021/04/26 04:47:50;;;;;;;4.77;2.93;;;;;;;;;;5074426;28;20245;-66
2021/04/26 04:50:16;;;;;;;5.97;3.40;;;;;;;;;;5069740;28;20215;-65
2021/04/26 04:52:42;;;;;;;4.67;2.70;;;;;;;;;;5092015;28;20266;-65
2021/04/26 04:55:09;;;;;;;6.43;3.00;;;;;;;;;;5085757;28;20176;-66
2021/04/26 04:57:35;;;;;;;5.53;3.10;;;;;;;;;;5060376;28;20183;-65
2021/04/26 05:00:01;;;;;;;4.17;3.03;;;;;;;;;;5075837;28;20180;-65
2021/04/26 05:02:27;;;;;;;4.97;3.80;;;;;;;;;;5072702;28;20190;-67
2021/04/26 05:04:53;;;;;;;4.10;3.10;;;;;;;;;;5072239;28;20195;-66
2021/04/26 05:07:19;;;;;;;3.90;3.00;;;;;;;;;;5074098;28;20377;-66
2021/04/26 05:09:45;;;;;;;4.73;3.13;;;;;;;;;;5077157;28;20186;-65
2021/04/26 05:12:11;;;;;;;4.30;2.80;;;;;;;;;;5091886;28;20180;-65
2021/04/26 05:14:39;;;;;;;6.37;3.30;;;;;;;;;;5088206;28;20176;-65
2021/04/26 05:17:05;;;;;;;5.73;3.53;;;;;;;;;;5078425;28;20176;-65
2021/04/26 05:19:32;;;;;;;5.90;2.90;;;;;;;;;;5077274;28;20484;-67
2021/04/26 05:21:58;;;;;;;3.27;2.60;;;;;;;;;;5072502;28;20195;-65
2021/04/26 05:24:24;;;;;;;4.60;3.40;;;;;;;;;;5075996;28;20198;-65
2021/04/26 05:26:50;;;;;;;4.13;3.20;;;;;;;;;;5092090;28;20184;-65
2021/04/26 05:29:16;;;;;;;4.93;3.20;;;;;;;;;;5092104;28;20185;-65
2021/04/26 05:31:42;;;;;;;3.77;3.37;;;;;;;;;;5077140;28;20726;-67
2021/04/26 05:34:08;;;;;;;4.17;3.00;;;;;;;;;;5083755;28;20191;-64
2021/04/26 05:36:34;;;;;;;4.30;3.17;;;;;;;;;;5091387;28;20631;-65
2021/04/26 05:39:00;;;;;;;5.20;3.90;;;;;;;;;;5055400;28;20263;-65
2021/04/26 05:41:27;;;;;;;4.20;3.03;;;;;;;;;;5085346;28;20186;-65
2021/04/26 05:43:53;;;;;;;4.00;3.10;;;;;;;;;;5074617;28;20190;-66
2021/04/26 05:46:19;;;;;;;6.07;3.10;;;;;;;;;;5091797;28;20237;-66
2021/04/26 05:48:45;;;;;;;3.30;2.80;;;;;;;;;;5089186;28;20270;-66
2021/04/26 05:51:11;;;;;;;5.20;3.70;;;;;;;;;;5090628;28;20203;-65
2021/04/26 05:53:37;;;;;;;6.30;3.37;;;;;;;;;;5090442;28;20188;-65
2021/04/26 05:56:03;;;;;;;6.17;3.10;;;;;;;;;;5089651;28;20649;-65
2021/04/26 05:58:29;;;;;;;7.20;3.73;;;;;;;;;;5092272;28;20175;-66
2021/04/26 06:00:55;;;;;;;4.87;3.10;;;;;;;;;;5088963;28;20184;-65
2021/04/26 06:03:21;;;;;;;6.77;3.03;;;;;;;;;;5072019;28;20232;-66
2021/04/26 06:05:47;;;;;;;3.93;3.13;;;;;;;;;;5072033;28;20204;-68
2021/04/26 06:08:13;;;;;;;5.33;3.57;;;;;;;;;;5086097;28;20538;-65
2021/04/26 06:10:39;;;;;;;6.53;3.30;;;;;;;;;;5080147;28;20203;-65
2021/04/26 06:13:05;;;;;;;5.73;3.13;;;;;;;;;;5091357;28;20172;-65
2021/04/26 06:15:31;;;;;;;6.93;3.73;;;;;;;;;;5066921;28;20257;-65
2021/04/26 06:18:14;;;;;;;6.20;3.17;;;;;;;;;;5082134;28;20191;-66
2021/04/26 06:20:41;;;;;;;5.80;3.63;;;;;;;;;;5071825;28;20192;-65
2021/04/26 06:23:07;;;;;;;4.10;2.90;;;;;;;;;;5082213;28;20254;-66
2021/04/26 06:25:35;;;;;;;4.47;3.40;;;;;;;;;;5060416;28;20651;-67
2021/04/26 06:28:01;;;;;;;5.33;3.73;;;;;;;;;;5090308;28;20175;-66
2021/04/26 06:30:27;;;;;;;5.20;3.40;;;;;;;;;;5088914;28;20192;-66
2021/04/26 06:32:53;;;;;;;5.50;3.53;;;;;;;;;;5081260;28;20619;-66
2021/04/26 06:35:19;;;;;;;3.60;3.07;;;;;;;;;;5060887;28;20514;-65
2021/04/26 06:37:45;;;;;;;3.40;2.93;;;;;;;;;;5064821;28;20221;-65
2021/04/26 06:40:12;;;;;;;3.63;3.30;;;;;;;;;;5080763;28;20657;-65
2021/04/26 06:42:38;;;;;;;4.20;3.50;;;;;;;;;;5081157;28;20177;-65
2021/04/26 06:45:05;;;;;;;7.17;3.63;;;;;;;;;;5086621;28;20190;-66
2021/04/26 06:47:31;;;;;;;4.80;3.10;;;;;;;;;;5064641;28;20215;-66
2021/04/26 06:49:57;;;;;;;3.47;3.17;;;;;;;;;;5063390;28;20200;-65
2021/04/26 06:52:23;;;;;;;5.60;3.40;;;;;;;;;;5088370;28;20234;-66
2021/04/26 06:54:49;;;;;;;3.37;2.70;;;;;;;;;;5079813;28;20179;-66
2021/04/26 06:57:15;;;;;;;3.67;2.80;;;;;;;;;;5090868;28;20642;-66
2021/04/26 06:59:41;;;;;;;5.23;3.47;;;;;;;;;;5091370;28;20214;-66
2021/04/26 07:02:07;;;;;;;3.97;3.40;;;;;;;;;;5070636;28;20222;-67
2021/04/26 07:04:33;;;;;;;3.83;3.13;;;;;;;;;;5068461;28;20402;-68
2021/04/26 07:07:01;;;;;;;5.20;3.23;;;;;;;;;;5070394;28;20318;-66
2021/04/26 07:09:27;;;;;;;3.97;3.03;;;;;;;;;;5062868;28;20191;-66
2021/04/26 07:11:54;;;;;;;4.23;3.23;;;;;;;;;;5060088;28;20265;-68
2021/04/26 07:14:20;;;;;;;6.87;2.93;;;;;;;;;;5076493;28;20748;-65
2021/04/26 07:16:47;;;;;;;5.30;3.47;;;;;;;;;;5090857;28;20610;-65
2021/04/26 07:19:13;;;;;;;6.63;3.60;;;;;;;;;;5079437;28;20538;-65
2021/04/26 07:21:39;;;;;;;5.17;3.87;;;;;;;;;;5080637;28;20836;-66
2021/04/26 07:24:06;;;;;;;4.90;3.60;;;;;;;;;;5071514;28;20172;-65
2021/04/26 07:26:32;;;;;;;4.37;3.10;;;;;;;;;;5084448;28;20517;-65
2021/04/26 07:28:58;;;;;;;4.83;3.23;;;;;;;;;;5059367;28;20183;-65
2021/04/26 07:31:24;;;;;;;3.70;2.83;;;;;;;;;;5085157;28;20211;-67
2021/04/26 07:33:50;;;;;;;3.67;2.93;;;;;;;;;;5083849;28;20222;-65
2021/04/26 07:36:16;;;;;;;2.60;2.33;;;;;;;;;;5083568;28;20189;-65
2021/04/26 07:38:42;;;;;;;3.47;2.80;;;;;;;;;;5085385;28;20184;-65
2021/04/26 07:41:08;;;;;;;5.90;2.70;;;;;;;;;;5087730;28;20630;-65
2021/04/26 07:43:34;;;;;;;3.10;2.83;;;;;;;;;;5067488;28;20190;-66
2021/04/26 07:46:00;;;;;;;2.77;2.20;;;;;;;;;;5081602;28;20187;-65
2021/04/26 07:48:26;;;;;;;4.93;2.57;;;;;;;;;;5059934;28;20303;-65
2021/04/26 07:50:52;;;;;;;3.33;2.37;;;;;;;;;;5083561;28;20249;-65
2021/04/26 07:53:18;;;;;;;3.87;2.50;;;;;;;;;;5066955;28;20215;-65
2021/04/26 07:55:44;;;;;;;3.70;2.37;;;;;;;;;;5061392;28;20222;-66
2021/04/26 07:58:10;;;;;;;2.73;2.27;;;;;;;;;;5088495;28;20563;-66
2021/04/26 08:00:36;;;;;;;3.27;2.17;;;;;;;;;;5069050;28;20188;-66
2021/04/26 08:03:02;;;;;;;3.40;2.03;;;;;;;;;;5088323;28;20276;-66
2021/04/26 08:05:29;;;;;;;5.57;2.40;;;;;;;;;;5066897;28;20252;-65
2021/04/26 08:07:55;;;;;;;2.87;2.47;;;;;;;;;;5088330;28;20202;-65
2021/04/26 08:10:21;;;;;;;2.63;2.40;;;;;;;;;;5085255;28;20272;-65
2021/04/26 08:12:48;;;;;;;2.70;2.50;;;;;;;;;;5088191;28;20168;-65
2021/04/26 08:15:14;;;;;;;2.33;1.83;;;;;;;;;;5087253;28;20539;-65
2021/04/26 08:17:41;;;;;;;2.60;2.00;;;;;;;;;;5065174;28;20186;-66
2021/04/26 08:20:07;;;;;;;2.37;1.97;;;;;;;;;;5079213;28;20644;-65
2021/04/26 08:22:34;;;;;;;2.03;1.83;;;;;;;;;;5087499;28;20249;-65
2021/04/26 08:25:00;;;;;;;2.20;2.00;;;;;;;;;;5063457;28;20189;-66
2021/04/26 08:27:26;;;;;;;2.43;1.90;;;;;;;;;;5060383;28;20172;-67
2021/04/26 08:29:52;;;;;;;2.37;1.90;;;;;;;;;;5087771;28;20172;-66
2021/04/26 08:32:19;;;;;;;3.17;2.10;;;;;;;;;;5069673;28;20597;-67
2021/04/26 08:34:45;;;;;;;3.13;1.97;;;;;;;;;;5071593;28;20535;-66
2021/04/26 08:37:11;;;;;;;2.50;1.93;;;;;;;;;;5060660;28;20255;-66
2021/04/26 08:39:37;;;;;;;3.13;1.90;;;;;;;;;;5088445;28;20195;-66
2021/04/26 08:42:05;;;;;;;2.40;2.20;;;;;;;;;;5084573;28;20182;-67
2021/04/26 08:44:32;;;;;;;2.20;1.70;;;;;;;;;;5089155;28;20233;-66
2021/04/26 08:46:58;;;;;;;1.73;1.60;;;;;;;;;;5071681;28;20180;-65
2021/04/26 08:49:24;;;;;;;2.53;1.70;;;;;;;;;;5085753;28;20208;-66
2021/04/26 08:51:50;;;;;;;1.80;1.50;;;;;;;;;;5064650;28;20207;-68
2021/04/26 08:54:17;;;;;;;2.13;1.77;;;;;;;;;;5072928;28;20181;-66
2021/04/26 08:56:44;;;;;;;1.83;1.70;;;;;;;;;;5082007;28;20236;-66
2021/04/26 08:59:10;;;;;;;2.93;1.80;;;;;;;;;;5089634;28;20176;-68
2021/04/26 09:01:36;;;;;;;2.55;2.10;;;;;;;;;;5069980;28;20428;-67
2021/04/26 09:04:10;;;;;;;1.73;1.60;;;;;;;;;;5084116;28;20185;-66
2021/04/26 09:06:58;;;;;;;6.07;2.30;;;;;;;;;;5087316;28;20172;-67
2021/04/26 09:09:38;;;;;;;1.90;1.47;;;;;;;;;;5062651;28;20180;-67
2021/04/26 09:12:05;;;;;;;2.20;2.00;;;;;;;;;;5059743;28;20204;-67
2021/04/26 09:14:35;;;;;;;2.73;1.67;;;;;;;;;;5077514;28;20607;-67
2021/04/26 09:17:21;;;;;;;1.60;1.50;;;;;;;;;;5055683;28;20204;-66
2021/04/26 09:19:47;;;;;;;1.80;1.30;;;;;;;;;;5089986;28;20216;-68
2021/04/26 09:22:13;;;;;;;2.47;1.60;;;;;;;;;;5089542;28;20183;-68
2021/04/26 09:24:40;;;;;;;2.00;1.80;;;;;;;;;;5067560;28;20607;-68
2021/04/26 09:27:13;;;;;;;2.30;1.77;;;;;;;;;;5089470;28;20510;-67
2021/04/26 09:29:39;;;;;;;2.27;1.50;;;;;;;;;;5085427;28;20180;-67
2021/04/26 09:32:05;;;;;;;6.17;2.40;;;;;;;;;;5076979;28;20212;-67
2021/04/26 09:34:39;;;;;;;3.60;1.70;;;;;;;;;;5074129;28;20246;-67
2021/04/26 09:37:05;;;;;;;3.40;1.90;;;;;;;;;;5092169;28;20188;-69
2021/04/26 09:39:31;;;;;;;3.30;1.90;;;;;;;;;;5088649;28;20234;-67
2021/04/26 09:41:57;;;;;;;2.73;2.10;;;;;;;;;;5084368;28;20176;-67
2021/04/26 09:44:23;;;;;;;2.67;2.10;;;;;;;;;;5066333;28;20176;-67
2021/04/26 09:46:53;;;;;;;2.90;1.70;;;;;;;;;;5068610;28;20221;-68
2021/04/26 09:49:24;;;;;;;2.90;1.93;;;;;;;;;;5090868;28;20199;-68
2021/04/26 09:51:52;;;;;;;3.27;2.10;;;;;;;;;;5086345;28;20676;-68
2021/04/26 09:54:34;;;;;;;4.57;2.03;;;;;;;;;;5086218;28;20186;-68
2021/04/26 09:57:01;;;;;;;4.63;2.20;;;;;;;;;;5057473;28;20169;-68
2021/04/26 09:59:27;;;;;;;5.80;2.33;;;;;;;;;;5091693;28;20175;-68
2021/04/26 10:01:53;;;;;;;4.47;2.07;;;;;;;;;;5072642;28;20183;-68
2021/04/26 10:04:20;;;;;;;2.53;2.20;;;;;;;;;;5077731;28;20179;-67
2021/04/26 10:06:46;;;;;;;3.13;2.20;;;;;;;;;;5057248;28;20180;-69
2021/04/26 10:09:12;;;;;;;4.67;2.40;;;;;;;;;;5055569;28;20183;-68
2021/04/26 10:11:38;;;;;;;6.53;2.50;;;;;;;;;;5090494;28;20199;-68
2021/04/26 10:14:14;;;;;;;2.10;1.90;;;;;;;;;;5066231;28;20164;-67
2021/04/26 10:16:53;;;;;;;3.97;2.50;;;;;;;;;;5087299;28;20238;-68
2021/04/26 10:19:27;;;;;;;13.77;2.67;;;;;;;;;;5084953;28;20535;-67
2021/04/26 10:21:57;;;;;;;4.80;2.40;;;;;;;;;;5083177;28;20175;-67
2021/04/26 10:24:24;;;;;;;5.87;2.50;;;;;;;;;;5075999;28;20200;-67
2021/04/26 10:26:51;;;;;;;3.77;2.40;;;;;;;;;;5053544;28;20630;-68
2021/04/26 10:29:19;;;;;;;4.60;1.93;;;;;;;;;;5073263;28;20195;-68
2021/04/26 10:32:00;;;;;;;2.63;2.20;;;;;;;;;;5082127;28;20214;-69
2021/04/26 10:34:27;;;;;;;2.53;2.20;;;;;;;;;;5084559;28;20175;-69
2021/04/26 10:36:54;;;;;;;2.77;2.00;;;;;;;;;;5084494;28;20630;-68
2021/04/26 10:39:21;;;;;;;5.47;2.60;;;;;;;;;;5075635;28;20180;-68
2021/04/26 10:41:47;;;;;;;4.37;2.50;;;;;;;;;;5057601;28;20212;-67
2021/04/26 10:44:14;;;;;;;3.60;2.30;;;;;;;;;;5087070;28;20176;-67
2021/04/26 10:46:40;;;;;;;2.30;2.10;;;;;;;;;;5083613;28;20175;-67
2021/04/26 10:49:06;;;;;;;4.37;2.17;;;;;;;;;;5063967;28;20207;-69
2021/04/26 10:51:36;;;;;;;2.63;2.43;;;;;;;;;;5065728;28;20200;-66
2021/04/26 10:54:03;;;;;;;2.23;2.03;;;;;;;;;;5055278;28;20168;-66
2021/04/26 10:56:30;;;;;;;4.37;2.47;;;;;;;;;;5079646;28;20177;-66
2021/04/26 10:59:15;;;;;;;3.20;2.03;;;;;;;;;;5064950;28;20186;-66
2021/04/26 11:01:45;;;;;;;3.00;2.40;;;;;;;;;;5082909;28;20188;-67
2021/04/26 11:04:11;;;;;;;2.43;2.23;;;;;;;;;;5064528;28;20212;-67
2021/04/26 11:06:38;;;;;;;3.53;2.37;;;;;;;;;;5073558;28;20200;-67
2021/04/26 11:09:16;;;;;;;3.50;1.97;;;;;;;;;;5082595;28;20198;-67
2021/04/26 11:11:55;;;;;;;2.90;2.40;;;;;;;;;;5082074;28;20298;-67
2021/04/26 11:14:22;;;;;;;3.57;2.50;;;;;;;;;;5085158;28;20165;-66
2021/04/26 11:16:53;;;;;;;2.83;2.30;;;;;;;;;;5081355;28;20187;-67
2021/04/26 11:19:19;;;;;;;3.40;2.50;;;;;;;;;;5088011;28;20642;-67
2021/04/26 11:21:47;;;;;;;4.87;2.63;;;;;;;;;;5082862;28;20179;-67
2021/04/26 11:24:25;;;;;;;2.97;2.60;;;;;;;;;;5066094;28;20651;-66
2021/04/26 11:27:17;;;;;;;3.77;2.17;;;;;;;;;;5067453;28;20611;-67
2021/04/26 11:29:44;;;;;;;2.63;2.40;;;;;;;;;;5079840;28;20173;-66
2021/04/26 11:32:11;;;;;;;4.13;2.37;;;;;;;;;;5082460;28;20634;-67
2021/04/26 11:35:00;;;;;;;3.97;2.63;;;;;;;;;;5066899;28;20207;-67
2021/04/26 11:37:30;;;;;;;2.63;2.30;;;;;;;;;;5081419;28;20171;-66
2021/04/26 11:39:57;;;;;;;5.87;2.63;;;;;;;;;;5081765;28;20179;-68
2021/04/26 11:42:24;;;;;;;3.27;2.40;;;;;;;;;;5063679;28;20176;-66
2021/04/26 11:44:50;;;;;;;4.70;2.30;;;;;;;;;;5082381;28;20168;-67
2021/04/26 11:47:17;;;;;;;2.93;2.40;;;;;;;;;;5082603;28;20176;-65
2021/04/26 11:49:45;;;;;;;4.13;2.40;;;;;;;;;;5086641;28;20683;-65
2021/04/26 11:52:12;;;;;;;4.10;2.20;;;;;;;;;;5081994;28;20195;-65
2021/04/26 11:54:38;;;;;;;2.97;2.60;;;;;;;;;;5085482;28;20863;-66
2021/04/26 11:57:09;;;;;;;3.93;2.30;;;;;;;;;;5083746;28;20805;-65
2021/04/26 11:59:36;;;;;;;5.37;2.67;;;;;;;;;;5085851;28;20266;-65
2021/04/26 12:02:02;;;;;;;4.30;2.70;;;;;;;;;;5087633;28;20623;-67
2021/04/26 12:04:40;;;;;;;3.17;2.60;;;;;;;;;;5053878;28;20187;-66
2021/04/26 12:07:07;;;;;;;2.80;2.50;;;;;;;;;;5084898;28;20523;-66
2021/04/26 12:09:33;;;;;;;5.63;2.93;;;;;;;;;;5090538;28;20229;-66
2021/04/26 12:12:04;;;;;;;3.90;2.80;;;;;;;;;;5086915;28;20195;-67
2021/04/26 12:14:30;;;;;;;8.10;3.37;;;;;;;;;;5063152;28;20168;-65
2021/04/26 12:17:15;;;;;;;5.97;2.67;;;;;;;;;;5085773;28;20183;-66
2021/04/26 12:19:41;;;;;;;6.87;3.00;;;;;;;;;;5066780;28;20183;-66
2021/04/26 12:22:07;;;;;;;4.20;2.43;;;;;;;;;;5080595;28;20204;-66
2021/04/26 12:24:34;;;;;;;6.20;2.63;;;;;;;;;;5080207;28;20264;-66
2021/04/26 12:27:00;;;;;;;4.10;2.93;;;;;;;;;;5063652;28;20268;-67
2021/04/26 12:29:30;;;;;;;4.93;2.43;;;;;;;;;;5086234;28;20179;-66
2021/04/26 12:32:14;;;;;;;5.47;3.00;;;;;;;;;;5091437;28;20195;-66
2021/04/26 12:34:48;;;;;;;3.53;2.80;;;;;;;;;;5085478;28;20697;-66
2021/04/26 12:37:14;;;;;;;4.30;2.90;;;;;;;;;;5088229;28;20176;-66
2021/04/26 12:39:40;;;;;;;3.27;2.50;;;;;;;;;;5092978;28;20176;-66
2021/04/26 12:42:13;;;;;;;3.50;2.40;;;;;;;;;;5068088;28;20185;-67
2021/04/26 12:44:40;;;;;;;5.83;2.53;;;;;;;;;;5083629;28;20180;-66
2021/04/26 12:47:16;;;;;;;6.47;3.27;;;;;;;;;;5088778;28;20176;-67
2021/04/26 12:49:42;;;;;;;3.70;2.60;;;;;;;;;;5056046;28;20678;-66
2021/04/26 12:52:16;;;;;;;5.93;2.67;;;;;;;;;;5069866;28;20224;-66
2021/04/26 12:55:01;;;;;;;9.30;3.00;;;;;;;;;;5093075;28;20164;-65
2021/04/26 12:57:27;;;;;;;6.37;2.87;;;;;;;;;;5065156;28;20689;-65
2021/04/26 12:59:53;;;;;;;5.13;2.93;;;;;;;;;;5086607;28;20199;-66
2021/04/26 13:02:24;;;;;;;5.40;2.87;;;;;;;;;;5066868;28;20173;-65
2021/04/26 13:04:50;;;;;;;4.43;2.80;;;;;;;;;;5080732;28;20549;-66
2021/04/26 13:07:17;;;;;;;4.63;2.73;;;;;;;;;;5085588;28;20255;-65
2021/04/26 13:09:43;;;;;;;3.30;2.40;;;;;;;;;;5071901;28;20169;-67
2021/04/26 13:12:09;;;;;;;8.50;2.90;;;;;;;;;;5065203;28;20260;-65
2021/04/26 13:14:35;;;;;;;3.93;3.10;;;;;;;;;;5054617;28;20261;-65
2021/04/26 13:17:09;;;;;;;4.67;2.57;;;;;;;;;;5065305;28;21213;-65
2021/04/26 13:19:43;;;;;;;3.40;2.87;;;;;;;;;;5086754;28;20585;-64
2021/04/26 13:22:28;;;;;;;2.70;2.50;;;;;;;;;;5089675;28;20259;-65
2021/04/26 13:24:55;;;;;;;3.47;2.53;;;;;;;;;;5084747;28;20263;-65
2021/04/26 13:27:21;;;;;;;4.07;2.73;;;;;;;;;;5089227;28;20244;-67
2021/04/26 13:29:48;;;;;;;3.40;2.60;;;;;;;;;;5091964;28;20657;-64
2021/04/26 13:32:14;;;;;;;3.27;2.97;;;;;;;;;;5068588;28;20294;-65
2021/04/26 13:34:41;;;;;;;3.30;3.00;;;;;;;;;;5082400;28;20735;-65
2021/04/26 13:37:07;;;;;;;3.27;2.50;;;;;;;;;;5088686;28;20172;-64
2021/04/26 13:39:33;;;;;;;3.57;2.70;;;;;;;;;;5091430;28;20175;-67
2021/04/26 13:41:59;;;;;;;2.60;2.40;;;;;;;;;;5068008;28;20172;-64
2021/04/26 13:44:25;;;;;;;3.13;2.60;;;;;;;;;;5069671;28;20274;-64
2021/04/26 13:46:52;;;;;;;3.73;3.20;;;;;;;;;;5067047;28;20703;-65
2021/04/26 13:49:18;;;;;;;4.07;2.50;;;;;;;;;;5084753;28;20642;-65
2021/04/26 13:51:45;;;;;;;4.60;3.20;;;;;;;;;;5081762;28;20839;-64
2021/04/26 13:54:11;;;;;;;3.53;3.10;;;;;;;;;;5075345;28;20191;-64
2021/04/26 13:56:40;;;;;;;9.27;3.27;;;;;;;;;;5080385;28;20176;-63
2021/04/26 13:59:06;;;;;;;5.53;3.20;;;;;;;;;;5084647;28;20230;-64
2021/04/26 14:01:32;;;;;;;4.30;3.23;;;;;;;;;;5079146;28;20179;-64
2021/04/26 14:03:58;;;;;;;7.97;3.10;;;;;;;;;;5089823;28;20185;-64
2021/04/26 14:06:24;;;;;;;4.40;3.30;;;;;;;;;;5079613;28;20186;-65
2021/04/26 14:08:50;;;;;;;6.47;4.17;;;;;;;;;;5087503;28;20180;-64
2021/04/26 14:11:16;;;;;;;6.07;3.53;;;;;;;;;;5086062;28;20226;-65
2021/04/26 14:13:42;;;;;;;8.30;3.40;;;;;;;;;;5084997;28;20214;-64
2021/04/26 14:16:09;;;;;;;3.43;3.07;;;;;;;;;;5084818;28;20654;-65
2021/04/26 14:18:35;;;;;;;4.37;3.30;;;;;;;;;;5086902;28;20172;-64
2021/04/26 14:21:01;;;;;;;5.43;3.30;;;;;;;;;;5077024;28;20176;-65
2021/04/26 14:23:27;;;;;;;3.57;2.70;;;;;;;;;;5082218;28;20595;-64
2021/04/26 14:25:53;;;;;;;5.10;3.17;;;;;;;;;;5084324;28;20706;-65
2021/04/26 14:28:19;;;;;;;3.60;3.17;;;;;;;;;;5064012;28;20502;-66
2021/04/26 14:30:47;;;;;;;4.93;4.07;;;;;;;;;;5082807;28;20268;-65
2021/04/26 14:33:13;;;;;;;3.43;3.10;;;;;;;;;;5083601;28;20219;-66
2021/04/26 14:35:40;;;;;;;3.57;3.27;;;;;;;;;;5073049;28;20187;-65
2021/04/26 14:38:07;;;;;;;4.10;3.40;;;;;;;;;;5086460;28;20263;-64
2021/04/26 14:40:34;;;;;;;4.27;2.97;;;;;;;;;;5078773;28;20188;-64
2021/04/26 14:43:00;;;;;;;3.80;3.27;;;;;;;;;;5067994;28;20240;-64
2021/04/26 14:45:26;;;;;;;6.23;3.00;;;;;;;;;;5081539;28;20579;-65